Craigton, Ohio
Current Conditions -  °F | °C
As of 8:56 PM on Sunday 21 Dec 2014 (Local Time) from KBJJ Reporting Station
Haze Haze  
Wind Chill: 17°   Ceiling: Unl
Heat Index: 24°   Visibility: 6mi
Dew Point: 20°   Wind: 6mph
Humidity: 84%   Direction: 100°E
Pressure: 30.2"   Gusts: NA
Location:  40.6891°N, 82.0362°W
Report Text: KBJJ 220156Z AUTO 10005KT 6SM BR CLR M04/M07 A3020 RMK AO2 UPB06E19 SLP242 P0000 T10441067 TSNO
Loading
Personal Weather Stations






























Interactive Weather Map New forecast layout! Learn more

10-Day Weather Forecast

Advertisements
Track Severe Weather on mobile